Terminal Aerodrome Forecast
Issued by NWS

Home | Current Version | Previous Version | Text Only | Print | Product List | Glossary On
Versions: 1 2 3 4 5 6 7 8 9 10 11 12 13 14 15 16 17 18
700
FTUS44 KBMX 302339 AAC
TAFANB
TAF AMD
KANB 302339Z 0100/0124 20007KT P6SM VCSH OVC090
     FM010500 18004KT P6SM BKN090
     FM010900 17004KT P6SM VCSH BKN015
     FM011500 22006KT P6SM SHRA VCTS OVC040CB=

USA.gov is the U.S. government's official web portal to all federal, state and local government web resources and services.